createdAt,value
2023-05-08T00:01:08.489Z,3.20
2023-05-08T00:03:35.407Z,5.30
2023-05-08T00:06:05.968Z,4.10
2023-05-08T00:08:33.032Z,3.67
2023-05-08T00:10:59.761Z,4.13
2023-05-08T00:13:26.719Z,7.30
2023-05-08T00:15:53.498Z,4.90
2023-05-08T00:18:20.226Z,4.70
2023-05-08T00:20:47.003Z,7.00
2023-05-08T00:23:13.826Z,7.23
2023-05-08T00:25:40.726Z,6.83
2023-05-08T00:28:07.436Z,5.70
2023-05-08T00:30:34.195Z,4.83
2023-05-08T00:33:00.935Z,7.50
2023-05-08T00:35:27.699Z,5.13
2023-05-08T00:37:54.464Z,6.03
2023-05-08T00:40:21.404Z,7.50
2023-05-08T00:42:48.110Z,6.47
2023-05-08T00:45:14.970Z,8.13
2023-05-08T00:47:42.279Z,7.87
2023-05-08T00:50:10.641Z,6.00
2023-05-08T00:52:38.466Z,9.10
2023-05-08T00:55:07.258Z,7.90
2023-05-08T00:57:35.701Z,7.27
2023-05-08T01:00:04.442Z,7.73
2023-05-08T01:02:32.069Z,7.53
2023-05-08T01:04:59.028Z,7.83
2023-05-08T01:07:26.093Z,7.53
2023-05-08T01:09:53.444Z,7.27
2023-05-08T01:12:40.755Z,6.50
2023-05-08T01:15:21.645Z,7.20
2023-05-08T01:18:16.248Z,7.10
2023-05-08T01:21:39.458Z,7.43
2023-05-08T01:24:27.052Z,6.67
2023-05-08T01:27:11.868Z,7.40
2023-05-08T01:29:59.893Z,6.03
2023-05-08T01:32:50.992Z,6.53
2023-05-08T01:35:23.961Z,6.47
2023-05-08T01:37:59.868Z,5.63
2023-05-08T01:40:51.531Z,6.70
2023-05-08T01:43:40.218Z,5.77
2023-05-08T01:46:26.149Z,4.90
2023-05-08T01:49:03.759Z,6.23
2023-05-08T01:51:40.392Z,6.93
2023-05-08T01:54:10.944Z,7.30
2023-05-08T01:56:39.870Z,9.43
2023-05-08T01:59:08.657Z,6.80
2023-05-08T02:01:36.873Z,6.23
2023-05-08T02:04:06.509Z,6.73
2023-05-08T02:06:34.794Z,6.90
2023-05-08T02:09:02.130Z,6.70
2023-05-08T02:11:32.109Z,6.00
2023-05-08T02:14:01.541Z,6.63
2023-05-08T02:16:29.865Z,5.40
2023-05-08T02:18:58.654Z,5.33
2023-05-08T02:21:26.543Z,5.20
2023-05-08T02:23:56.095Z,6.10
2023-05-08T02:26:24.273Z,6.57
2023-05-08T02:28:56.135Z,5.70
2023-05-08T02:31:24.148Z,6.93
2023-05-08T02:33:52.647Z,6.77
2023-05-08T02:36:20.352Z,6.40
2023-05-08T02:38:54.134Z,6.47
2023-05-08T02:41:25.223Z,6.73
2023-05-08T02:43:52.770Z,6.87
2023-05-08T02:46:27.746Z,6.83
2023-05-08T02:49:07.205Z,5.70
2023-05-08T02:51:46.945Z,6.40
2023-05-08T02:54:31.055Z,6.83
2023-05-08T02:57:08.749Z,6.53
2023-05-08T02:59:51.831Z,7.03
2023-05-08T03:02:35.465Z,7.57
2023-05-08T03:05:18.992Z,7.70
2023-05-08T03:07:50.036Z,8.03
2023-05-08T03:10:21.668Z,8.23
2023-05-08T03:12:52.024Z,7.23
2023-05-08T03:15:29.440Z,6.83
2023-05-08T03:18:00.645Z,6.50
2023-05-08T03:20:32.542Z,6.60
2023-05-08T03:23:02.679Z,7.33
2023-05-08T03:25:32.503Z,8.87
2023-05-08T03:28:00.526Z,8.07
2023-05-08T03:30:28.060Z,8.17
2023-05-08T03:33:04.852Z,10.93
2023-05-08T03:35:34.918Z,10.63
2023-05-08T03:38:02.452Z,10.50
2023-05-08T03:40:29.514Z,12.53
2023-05-08T03:42:56.795Z,10.03
2023-05-08T03:45:24.991Z,12.50
2023-05-08T03:47:53.850Z,11.93
2023-05-08T03:50:21.845Z,12.30
2023-05-08T03:52:49.029Z,13.87
2023-05-08T03:55:16.098Z,13.63
2023-05-08T03:58:06.188Z,13.43
2023-05-08T04:00:52.154Z,16.60
2023-05-08T04:03:52.853Z,14.50
2023-05-08T04:06:42.041Z,13.43
2023-05-08T04:09:35.937Z,12.23
2023-05-08T04:12:09.608Z,12.73
2023-05-08T04:14:45.414Z,14.13
2023-05-08T04:17:17.610Z,15.20
2023-05-08T04:19:48.513Z,13.50
2023-05-08T04:22:17.915Z,13.87
2023-05-08T04:24:47.421Z,15.13
2023-05-08T04:27:15.274Z,13.27
2023-05-08T04:29:42.537Z,12.70
2023-05-08T04:32:11.666Z,12.80
2023-05-08T04:34:39.229Z,13.30
2023-05-08T04:37:08.010Z,13.33
2023-05-08T04:39:35.337Z,15.10
2023-05-08T04:42:04.677Z,13.20
2023-05-08T04:44:33.749Z,13.70
2023-05-08T04:47:00.779Z,13.50
2023-05-08T04:49:27.537Z,13.93
2023-05-08T04:51:54.381Z,12.70
2023-05-08T04:54:21.215Z,11.13
2023-05-08T04:56:47.977Z,12.57
2023-05-08T04:59:16.074Z,11.30
2023-05-08T05:01:43.196Z,12.90
2023-05-08T05:04:10.177Z,11.33
2023-05-08T05:06:36.991Z,10.47
2023-05-08T05:09:04.807Z,11.77
2023-05-08T05:11:31.847Z,10.53
2023-05-08T05:13:58.606Z,10.60
2023-05-08T05:16:25.495Z,11.60
2023-05-08T05:18:52.329Z,11.20
2023-05-08T05:21:19.943Z,13.43
2023-05-08T05:23:46.817Z,14.00
2023-05-08T05:26:13.623Z,10.50
2023-05-08T05:28:40.674Z,14.03
2023-05-08T05:31:07.795Z,14.60
2023-05-08T05:33:34.738Z,13.03
2023-05-08T05:36:01.598Z,11.07
2023-05-08T05:38:28.587Z,11.33
2023-05-08T05:40:55.444Z,11.10
2023-05-08T05:43:22.323Z,12.13
2023-05-08T05:45:49.186Z,12.53
2023-05-08T05:48:16.512Z,11.47
2023-05-08T05:50:43.545Z,10.30
2023-05-08T05:53:10.660Z,12.33
2023-05-08T05:55:37.523Z,12.23
2023-05-08T05:58:04.394Z,12.03
2023-05-08T06:00:32.856Z,12.67
2023-05-08T06:03:00.385Z,10.47
2023-05-08T06:05:27.381Z,11.83
2023-05-08T06:07:54.230Z,12.13
2023-05-08T06:10:21.063Z,13.30
2023-05-08T06:12:48.006Z,10.73
2023-05-08T06:15:15.902Z,10.63
2023-05-08T06:17:45.339Z,10.97
2023-05-08T06:20:13.082Z,15.87
2023-05-08T06:22:40.266Z,12.83
2023-05-08T06:25:08.383Z,11.30
2023-05-08T06:27:35.873Z,10.20
2023-05-08T06:30:04.710Z,11.57
2023-05-08T06:32:31.559Z,10.07
2023-05-08T06:34:58.320Z,12.50
2023-05-08T06:37:25.097Z,12.93
2023-05-08T06:40:03.790Z,11.87
2023-05-08T06:42:37.474Z,10.73
2023-05-08T06:45:05.101Z,11.83
2023-05-08T06:47:31.934Z,10.50
2023-05-08T06:49:58.731Z,10.13
2023-05-08T06:52:25.805Z,10.20
2023-05-08T06:54:52.722Z,13.03
2023-05-08T06:57:19.498Z,10.30
2023-05-08T06:59:46.286Z,9.67
2023-05-08T07:02:13.108Z,9.50
2023-05-08T07:04:40.042Z,10.47
2023-05-08T07:07:07.783Z,11.10
2023-05-08T07:09:34.579Z,10.23
2023-05-08T07:12:01.320Z,10.87
2023-05-08T07:14:28.552Z,9.57
2023-05-08T07:16:55.286Z,9.57
2023-05-08T07:19:22.645Z,9.33
2023-05-08T07:21:49.600Z,9.47
2023-05-08T07:24:16.434Z,8.80
2023-05-08T07:26:43.224Z,10.10
2023-05-08T07:29:10.041Z,11.43
2023-05-08T07:31:40.833Z,11.03
2023-05-08T07:34:07.719Z,8.67
2023-05-08T07:36:34.571Z,10.23
2023-05-08T07:39:01.309Z,9.97
2023-05-08T07:41:28.088Z,9.80
2023-05-08T07:43:54.848Z,8.00
2023-05-08T07:46:21.841Z,10.23
2023-05-08T07:48:48.965Z,11.27
2023-05-08T07:51:15.912Z,9.73
2023-05-08T07:53:43.399Z,11.47
2023-05-08T07:56:10.236Z,9.23
2023-05-08T07:58:37.086Z,9.37
2023-05-08T08:01:03.982Z,8.60
2023-05-08T08:03:30.860Z,11.17
2023-05-08T08:05:57.675Z,8.93
2023-05-08T08:08:24.482Z,8.70
2023-05-08T08:10:51.900Z,9.27
2023-05-08T08:13:18.806Z,9.13
2023-05-08T08:15:45.594Z,13.30
2023-05-08T08:18:13.023Z,10.77
2023-05-08T08:20:40.049Z,11.83
2023-05-08T08:23:06.980Z,9.33
2023-05-08T08:25:33.838Z,11.40
2023-05-08T08:28:00.948Z,11.43
2023-05-08T08:30:27.859Z,9.77
2023-05-08T08:32:54.732Z,9.57
2023-05-08T08:35:22.928Z,10.43
2023-05-08T08:37:50.299Z,11.13
2023-05-08T08:40:17.085Z,9.40
2023-05-08T08:42:43.906Z,10.60
2023-05-08T08:45:11.305Z,12.33
2023-05-08T08:47:41.712Z,10.77
2023-05-08T08:50:11.980Z,8.80
2023-05-08T08:52:47.616Z,9.37
2023-05-08T08:55:16.979Z,11.73
2023-05-08T08:58:26.723Z,10.00
2023-05-08T09:00:55.095Z,9.80
2023-05-08T09:03:21.996Z,12.33
2023-05-08T09:05:49.683Z,9.13
2023-05-08T09:08:18.821Z,9.07
2023-05-08T09:10:46.723Z,9.87
2023-05-08T09:13:13.671Z,10.80
2023-05-08T09:15:40.858Z,13.50
2023-05-08T09:18:07.707Z,12.40
2023-05-08T09:20:35.201Z,10.80
2023-05-08T09:23:04.934Z,10.13
2023-05-08T09:25:42.584Z,10.60
2023-05-08T09:28:23.468Z,9.73
2023-05-08T09:30:57.950Z,12.50
2023-05-08T09:33:27.147Z,12.80
2023-05-08T09:35:57.397Z,13.90
2023-05-08T09:38:34.504Z,10.03
2023-05-08T09:41:15.752Z,10.03
2023-05-08T09:43:44.253Z,10.23
2023-05-08T09:46:23.020Z,12.20
2023-05-08T09:48:51.580Z,9.57
2023-05-08T09:51:18.455Z,11.53
2023-05-08T09:53:45.610Z,10.10
2023-05-08T09:56:12.670Z,10.00
2023-05-08T09:58:44.255Z,9.43
2023-05-08T10:01:34.803Z,11.70
2023-05-08T10:04:02.480Z,10.07
2023-05-08T10:06:30.039Z,10.00
2023-05-08T10:09:14.539Z,11.73
2023-05-08T10:11:51.861Z,12.40
2023-05-08T10:14:19.489Z,10.67
2023-05-08T10:16:52.683Z,10.03
2023-05-08T10:19:24.477Z,14.37
2023-05-08T10:21:56.220Z,12.63
2023-05-08T10:24:33.659Z,9.93
2023-05-08T10:27:27.890Z,13.37
2023-05-08T10:29:56.568Z,11.23
2023-05-08T10:32:24.760Z,10.87
2023-05-08T10:35:00.690Z,14.10
2023-05-08T10:37:30.236Z,10.20
2023-05-08T10:39:58.797Z,10.23
2023-05-08T10:42:27.584Z,10.83
2023-05-08T10:44:55.251Z,9.77
2023-05-08T10:47:46.331Z,9.93
2023-05-08T10:50:44.346Z,10.00
2023-05-08T10:53:29.064Z,9.97
2023-05-08T10:55:56.230Z,9.50
2023-05-08T10:58:32.291Z,8.90
2023-05-08T11:01:07.968Z,9.20
2023-05-08T11:03:42.738Z,8.70
2023-05-08T11:06:10.114Z,11.33
2023-05-08T11:08:49.445Z,11.80
2023-05-08T11:11:26.568Z,9.97
2023-05-08T11:14:19.723Z,7.83
2023-05-08T11:16:59.847Z,9.40
2023-05-08T11:19:28.335Z,9.20
2023-05-08T11:22:15.431Z,9.73
2023-05-08T11:24:50.186Z,7.53
2023-05-08T11:27:17.313Z,7.70
2023-05-08T11:29:45.068Z,8.83
2023-05-08T11:32:12.130Z,8.63
2023-05-08T11:34:48.702Z,8.83
2023-05-08T11:37:20.742Z,9.87
2023-05-08T11:39:48.228Z,8.43
2023-05-08T11:42:27.320Z,7.93
2023-05-08T11:45:13.682Z,7.47
2023-05-08T11:47:44.877Z,7.20
2023-05-08T11:50:13.368Z,7.50
2023-05-08T11:52:42.064Z,7.10
2023-05-08T11:55:15.678Z,7.23
2023-05-08T11:57:42.424Z,7.70
2023-05-08T12:00:11.418Z,7.30
2023-05-08T12:02:43.876Z,7.60
2023-05-08T12:05:11.521Z,7.83
2023-05-08T12:07:46.639Z,7.93
2023-05-08T12:10:15.280Z,8.53
2023-05-08T12:12:44.074Z,13.57
2023-05-08T12:15:13.643Z,11.63
2023-05-08T12:17:41.399Z,10.33
2023-05-08T12:20:17.410Z,11.03
2023-05-08T12:22:52.555Z,10.77
2023-05-08T12:25:19.819Z,10.73
2023-05-08T12:27:46.836Z,12.50
2023-05-08T12:30:14.930Z,10.63
2023-05-08T12:32:43.168Z,11.17
2023-05-08T12:35:11.746Z,11.50
2023-05-08T12:37:39.096Z,11.37
2023-05-08T12:40:07.190Z,10.43
2023-05-08T12:42:46.414Z,11.40
2023-05-08T12:45:19.209Z,10.57
2023-05-08T12:47:50.166Z,11.63
2023-05-08T12:50:18.629Z,10.30
2023-05-08T12:52:45.761Z,11.13
2023-05-08T12:55:27.283Z,11.10
2023-05-08T12:58:15.260Z,11.80
2023-05-08T13:00:49.825Z,11.50
2023-05-08T13:03:28.077Z,12.23
2023-05-08T13:05:57.026Z,10.53
2023-05-08T13:08:34.358Z,10.03
2023-05-08T13:11:02.550Z,12.17
2023-05-08T13:13:34.800Z,9.93
2023-05-08T13:16:07.007Z,10.37
2023-05-08T13:18:36.675Z,10.20
2023-05-08T13:21:03.818Z,12.30
2023-05-08T13:23:30.589Z,9.23
2023-05-08T13:25:57.437Z,10.90
2023-05-08T13:28:24.265Z,10.27
2023-05-08T13:30:51.088Z,10.33
2023-05-08T13:33:17.973Z,10.10
2023-05-08T13:35:44.882Z,9.43
2023-05-08T13:38:11.633Z,11.50
2023-05-08T13:40:38.499Z,9.40
2023-05-08T13:43:05.671Z,9.00
2023-05-08T13:45:33.179Z,9.77
2023-05-08T13:48:00.228Z,8.73
2023-05-08T13:50:27.093Z,10.60
2023-05-08T13:52:55.100Z,8.87
2023-05-08T13:55:23.094Z,9.50
2023-05-08T13:57:50.614Z,8.47
2023-05-08T14:00:18.277Z,8.13
2023-05-08T14:02:45.246Z,8.30
2023-05-08T14:05:12.394Z,8.30
2023-05-08T14:07:39.416Z,9.43
2023-05-08T14:10:06.521Z,8.60
2023-05-08T14:12:36.162Z,9.80
2023-05-08T14:15:05.071Z,11.33
2023-05-08T14:17:32.366Z,9.50
2023-05-08T14:19:59.220Z,9.00
2023-05-08T14:22:26.063Z,9.50
2023-05-08T14:24:53.114Z,9.50
2023-05-08T14:27:20.225Z,9.80
2023-05-08T14:29:47.112Z,10.10
2023-05-08T14:32:13.944Z,9.17
2023-05-08T14:34:40.705Z,9.13
2023-05-08T14:37:07.566Z,9.20
2023-05-08T14:39:34.384Z,8.57
2023-05-08T14:42:21.424Z,9.23
2023-05-08T14:44:48.751Z,9.47
2023-05-08T14:47:15.692Z,9.60
2023-05-08T14:49:42.449Z,9.57
2023-05-08T14:52:09.230Z,8.23
2023-05-08T14:54:36.251Z,8.00
2023-05-08T14:57:03.290Z,9.40
2023-05-08T14:59:30.053Z,8.33
2023-05-08T15:01:57.012Z,8.27
2023-05-08T15:04:23.908Z,11.13
2023-05-08T15:06:50.657Z,8.63
2023-05-08T15:09:17.707Z,9.77
2023-05-08T15:11:44.744Z,11.57
2023-05-08T15:14:11.613Z,12.23
2023-05-08T15:16:38.481Z,9.97
2023-05-08T15:19:05.336Z,9.57
2023-05-08T15:21:32.214Z,10.07
2023-05-08T15:23:59.087Z,12.37
2023-05-08T15:26:26.023Z,9.43
2023-05-08T15:28:52.930Z,11.73
2023-05-08T15:31:19.712Z,10.20
2023-05-08T15:33:47.755Z,12.27
2023-05-08T15:36:14.842Z,11.20
2023-05-08T15:38:42.617Z,11.57
2023-05-08T15:41:14.821Z,12.67
2023-05-08T15:43:42.883Z,12.50
2023-05-08T15:46:09.874Z,13.13
2023-05-08T15:48:36.705Z,12.77
2023-05-08T15:51:03.718Z,13.20
2023-05-08T15:53:30.491Z,14.50
2023-05-08T15:55:57.525Z,13.10
2023-05-08T15:58:24.687Z,13.10
2023-05-08T16:00:51.799Z,11.40
2023-05-08T16:03:19.216Z,12.53
2023-05-08T16:05:46.267Z,10.33
2023-05-08T16:08:13.696Z,9.70
2023-05-08T16:10:41.392Z,11.27
2023-05-08T16:13:08.605Z,11.77
2023-05-08T16:15:35.568Z,10.90
2023-05-08T16:18:02.940Z,14.63
2023-05-08T16:20:30.048Z,12.07
2023-05-08T16:22:57.359Z,14.23
2023-05-08T16:25:24.570Z,12.93
2023-05-08T16:27:52.033Z,13.53
2023-05-08T16:30:18.898Z,13.63
2023-05-08T16:32:46.125Z,15.13
2023-05-08T16:35:13.607Z,13.83
2023-05-08T16:37:40.677Z,12.53
2023-05-08T16:40:08.859Z,15.47
2023-05-08T16:42:36.892Z,14.33
2023-05-08T16:45:07.690Z,16.67
2023-05-08T16:47:34.744Z,14.20
2023-05-08T16:50:01.640Z,12.87
2023-05-08T16:52:28.530Z,11.68
2023-05-08T16:54:55.411Z,16.37
2023-05-08T16:57:22.257Z,15.53
2023-05-08T16:59:49.136Z,15.83
2023-05-08T17:02:18.896Z,15.83
2023-05-08T17:04:49.404Z,14.97
2023-05-08T17:07:16.924Z,14.43
2023-05-08T17:09:44.241Z,13.03
2023-05-08T17:12:10.997Z,12.13
2023-05-08T17:14:39.440Z,15.03
2023-05-08T17:17:06.946Z,14.30
2023-05-08T17:19:34.042Z,12.23
2023-05-08T17:22:00.902Z,12.27
2023-05-08T17:24:29.608Z,11.70
2023-05-08T17:26:56.471Z,9.97
2023-05-08T17:29:23.237Z,12.30
2023-05-08T17:31:50.065Z,12.50
2023-05-08T17:34:17.158Z,11.47
2023-05-08T17:36:44.212Z,15.10
2023-05-08T17:39:11.472Z,15.47
2023-05-08T17:41:38.226Z,15.93
2023-05-08T17:44:05.055Z,15.83
2023-05-08T17:46:31.925Z,13.60
2023-05-08T17:48:58.663Z,16.97
2023-05-08T17:51:25.651Z,12.77
2023-05-08T17:53:53.144Z,11.97
2023-05-08T17:56:23.148Z,13.90
2023-05-08T17:58:52.296Z,14.77
2023-05-08T18:01:20.171Z,17.03
2023-05-08T18:03:50.240Z,14.77
2023-05-08T18:06:18.353Z,14.57
2023-05-08T18:08:45.965Z,16.00
2023-05-08T18:11:26.355Z,15.97
2023-05-08T18:13:54.240Z,12.80
2023-05-08T18:16:22.038Z,12.03
2023-05-08T18:18:49.912Z,11.63
2023-05-08T18:21:16.907Z,10.83
2023-05-08T18:23:43.859Z,14.07
2023-05-08T18:26:15.074Z,11.00
2023-05-08T18:28:42.202Z,10.53
2023-05-08T18:31:09.149Z,12.90
2023-05-08T18:33:37.064Z,18.53
2023-05-08T18:36:07.080Z,16.13
2023-05-08T18:38:34.914Z,18.17
2023-05-08T18:41:03.117Z,17.53
2023-05-08T18:43:29.860Z,14.87
2023-05-08T18:45:57.687Z,14.10
2023-05-08T18:48:26.198Z,14.20
2023-05-08T18:50:53.108Z,12.40
2023-05-08T18:53:20.004Z,12.27
2023-05-08T18:55:46.796Z,11.03
2023-05-08T18:58:13.569Z,12.27
2023-05-08T19:00:40.506Z,15.97
2023-05-08T19:03:07.371Z,13.00
2023-05-08T19:05:34.177Z,13.33
2023-05-08T19:08:00.946Z,13.20
2023-05-08T19:10:27.785Z,18.37
2023-05-08T19:12:54.597Z,17.63
2023-05-08T19:15:21.494Z,16.67
2023-05-08T19:17:48.319Z,15.53
2023-05-08T19:20:15.563Z,14.90
2023-05-08T19:22:42.566Z,16.63
2023-05-08T19:25:09.975Z,25.47
2023-05-08T19:27:36.844Z,16.73
2023-05-08T19:30:04.212Z,19.73
2023-05-08T19:32:31.098Z,19.07
2023-05-08T19:34:57.981Z,20.33
2023-05-08T19:37:25.211Z,17.73
2023-05-08T19:39:51.980Z,18.97
2023-05-08T19:42:18.707Z,21.17
2023-05-08T19:44:45.512Z,21.13
2023-05-08T19:47:13.252Z,22.80
2023-05-08T19:49:40.197Z,20.23
2023-05-08T19:52:06.994Z,24.30
2023-05-08T19:54:33.825Z,21.00
2023-05-08T19:57:00.590Z,20.00
2023-05-08T19:59:27.615Z,19.87
2023-05-08T20:01:54.567Z,26.63
2023-05-08T20:04:21.495Z,25.00
2023-05-08T20:06:48.368Z,24.57
2023-05-08T20:09:15.267Z,22.57
2023-05-08T20:11:42.066Z,23.20
2023-05-08T20:14:08.864Z,23.17
2023-05-08T20:16:36.011Z,24.93
2023-05-08T20:19:02.986Z,21.10
2023-05-08T20:21:32.420Z,19.40
2023-05-08T20:23:59.780Z,19.17
2023-05-08T20:26:29.738Z,19.13
2023-05-08T20:28:57.353Z,17.23
2023-05-08T20:31:25.806Z,16.37
2023-05-08T20:33:52.826Z,14.50
2023-05-08T20:36:20.318Z,12.47
2023-05-08T20:38:47.110Z,11.50
2023-05-08T20:41:13.861Z,10.50
2023-05-08T20:43:40.634Z,11.90
2023-05-08T20:46:07.459Z,14.37
2023-05-08T20:48:34.248Z,23.23
2023-05-08T20:51:01.099Z,24.60
2023-05-08T20:53:27.846Z,24.37
2023-05-08T20:56:05.069Z,22.77
2023-05-08T20:58:31.947Z,24.23
2023-05-08T21:00:58.760Z,24.83
2023-05-08T21:03:25.628Z,26.23
2023-05-08T21:05:54.692Z,28.00
2023-05-08T21:08:26.472Z,26.10
2023-05-08T21:10:53.230Z,27.00
2023-05-08T21:13:20.203Z,28.47
2023-05-08T21:15:52.943Z,25.77
2023-05-08T21:18:21.000Z,21.33
2023-05-08T21:20:50.649Z,21.77
2023-05-08T21:23:18.735Z,22.37
2023-05-08T21:25:46.989Z,24.77
2023-05-08T21:28:15.129Z,23.23
2023-05-08T21:30:45.635Z,23.37
2023-05-08T21:33:16.137Z,17.30
2023-05-08T21:35:43.380Z,16.17
2023-05-08T21:38:12.073Z,15.67
2023-05-08T21:40:39.059Z,14.97
2023-05-08T21:43:05.890Z,21.20
2023-05-08T21:45:32.985Z,22.63
2023-05-08T21:48:00.752Z,23.63
2023-05-08T21:50:30.715Z,23.80
2023-05-08T21:52:57.612Z,20.10
2023-05-08T21:55:24.534Z,24.30
2023-05-08T21:57:52.022Z,22.47
2023-05-08T22:00:20.073Z,23.70
2023-05-08T22:02:47.073Z,23.47
2023-05-08T22:05:14.488Z,19.90
2023-05-08T22:07:41.752Z,23.97
2023-05-08T22:10:10.342Z,21.50
2023-05-08T22:12:37.154Z,20.43
2023-05-08T22:15:14.998Z,17.23
2023-05-08T22:17:50.527Z,16.80
2023-05-08T22:20:18.111Z,16.20
2023-05-08T22:22:45.117Z,21.40
2023-05-08T22:25:12.051Z,16.87
2023-05-08T22:27:39.190Z,14.83
2023-05-08T22:30:06.857Z,13.97
2023-05-08T22:32:33.823Z,13.03
2023-05-08T22:35:00.609Z,17.37
2023-05-08T22:37:27.545Z,14.67
2023-05-08T22:39:54.330Z,12.63
2023-05-08T22:42:21.078Z,13.63
2023-05-08T22:44:48.122Z,11.83
2023-05-08T22:47:15.109Z,13.40
2023-05-08T22:49:42.526Z,12.50
2023-05-08T22:52:09.995Z,16.53
2023-05-08T22:54:36.760Z,16.20
2023-05-08T22:57:03.918Z,12.17
2023-05-08T22:59:30.937Z,12.57
2023-05-08T23:01:57.750Z,12.20
2023-05-08T23:04:24.660Z,13.10
2023-05-08T23:06:51.456Z,12.87
2023-05-08T23:09:18.247Z,12.43
2023-05-08T23:11:44.997Z,14.20
2023-05-08T23:14:11.783Z,13.37
2023-05-08T23:16:38.605Z,14.30
2023-05-08T23:19:05.529Z,13.43
2023-05-08T23:21:32.779Z,12.97
2023-05-08T23:23:59.527Z,11.67
2023-05-08T23:26:26.363Z,13.47
2023-05-08T23:28:53.089Z,13.93
2023-05-08T23:31:19.904Z,13.10
2023-05-08T23:33:46.684Z,14.93
2023-05-08T23:36:13.436Z,12.93
2023-05-08T23:38:40.454Z,13.27
2023-05-08T23:41:07.792Z,15.33
2023-05-08T23:43:34.566Z,13.20
2023-05-08T23:46:01.344Z,13.37
2023-05-08T23:48:28.253Z,12.43
2023-05-08T23:50:55.037Z,15.97
2023-05-08T23:53:21.924Z,13.73
2023-05-08T23:55:52.364Z,11.37
2023-05-08T23:58:19.211Z,10.67
